This is the latest recevied weather packets stored in our database for station/object KB4KY. If no packets are shown the sender has not sent any weather packets the latest 1 day(s).
| Time | Temp. | Humidity | Pressure | Rain* | Wind** | Luminosity | Snow |
|---|---|---|---|---|---|---|---|
| 1778079220 | 13.33° C | 76% | 1012.5 hPa | 0 mm | - | - | - |
| 1778078920 | 12.78° C | 79% | 1012.6 hPa | 0 mm | - | - | - |
| 1778078322 | 12.22° C | 81% | 1012.8 hPa | 0 mm | - | - | - |
| 1778078251 | 10.56° C | 84% | 1012.7 hPa | 0 mm | - | - | - |
| 1778078019 | 11.67° C | 82% | 1012.6 hPa | 0 mm | - | - | - |
| 1778077118 | 10.56° C | 84% | 1012.8 hPa | 0 mm | - | - | - |
| 1778076818 | 10.56° C | 84% | 1012.7 hPa | 0 mm | - | - | - |
| 1778076218 | 10.56° C | 86% | 1012.7 hPa | 0 mm | - | - | - |
| 1778075917 | 10° C | 87% | 1012.6 hPa | 0 mm | - | - | - |
| 1778075016 | 10° C | 87% | 1012.2 hPa | 0 mm | - | - | - |
| 1778072614 | 9.44° C | 91% | 1011.7 hPa | 0 mm | - | - | - |
| 1778072016 | 9.44° C | 91% | 1011.6 hPa | 0 mm | - | - | - |
| 1778071713 | 9.44° C | 91% | 1011.6 hPa | 0 mm | - | - | - |
| 1778071413 | 9.44° C | 92% | 1011.7 hPa | 0 mm | - | - | - |
| 1778071355 | 8.89° C | 92% | 1011.8 hPa | 0 mm | - | - | - |
| 1778070812 | 8.89° C | 92% | 1011.5 hPa | 0 mm | - | - | - |
| 1778070212 | 9.44° C | 92% | 1011.6 hPa | 0 mm | - | - | - |
| 1778069911 | 9.44° C | 93% | 1011.5 hPa | 0 mm | - | - | - |
| 1778069611 | 9.44° C | 94% | 1011.2 hPa | 0 mm | - | - | - |
| 1778069313 | 10° C | 95% | 1011.2 hPa | 0 mm | - | - | - |
| 1778068710 | 10° C | 96% | 1010.9 hPa | 0 mm | - | - | - |
| 1778065707 | 10° C | 96% | 1010.1 hPa | 0 mm | - | - | - |
| 1778065407 | 10° C | 97% | 1010 hPa | 0 mm | - | - | - |
| 1778065144 | 10° C | 97% | 1009.7 hPa | 0 mm | - | - | - |
| 1778065107 | 10° C | 97% | 1009.7 hPa | 0 mm | - | - | - |
* Rain latest hour (hover to see other rain measurements)
** Current wind speed in m/s (hover to see current wind gust speed)